createdAt,value
2022-11-22T00:00:42.171Z,12.85
2022-11-22T00:03:09.427Z,13.95
2022-11-22T00:05:36.532Z,13.45
2022-11-22T00:08:04.445Z,14.32
2022-11-22T00:10:31.493Z,14.27
2022-11-22T00:12:58.826Z,13.70
2022-11-22T00:15:25.771Z,14.80
2022-11-22T00:17:52.704Z,15.10
2022-11-22T00:20:19.586Z,14.75
2022-11-22T00:22:47.011Z,13.38
2022-11-22T00:25:14.727Z,14.77
2022-11-22T00:27:42.114Z,13.18
2022-11-22T00:30:10.141Z,13.60
2022-11-22T00:32:37.354Z,14.70
2022-11-22T00:35:05.065Z,13.75
2022-11-22T00:37:32.702Z,13.85
2022-11-22T00:39:59.612Z,13.90
2022-11-22T00:42:27.075Z,12.85
2022-11-22T00:44:54.060Z,14.77
2022-11-22T00:47:21.018Z,14.48
2022-11-22T00:49:47.926Z,13.73
2022-11-22T00:52:14.981Z,14.48
2022-11-22T00:54:41.912Z,14.18
2022-11-22T00:57:09.056Z,13.75
2022-11-22T00:59:36.181Z,14.20
2022-11-22T01:02:03.251Z,13.15
2022-11-22T01:04:30.101Z,14.13
2022-11-22T01:06:57.413Z,11.88
2022-11-22T01:09:24.684Z,14.48
2022-11-22T01:11:51.993Z,13.98
2022-11-22T01:14:19.443Z,14.35
2022-11-22T01:16:46.839Z,13.48
2022-11-22T01:19:14.390Z,13.65
2022-11-22T01:21:41.410Z,13.27
2022-11-22T01:24:09.551Z,13.50
2022-11-22T01:26:36.879Z,13.93
2022-11-22T01:29:04.780Z,14.23
2022-11-22T01:31:31.775Z,12.57
2022-11-22T01:33:59.696Z,13.05
2022-11-22T01:36:27.810Z,14.18
2022-11-22T01:38:55.143Z,12.70
2022-11-22T01:41:22.234Z,14.13
2022-11-22T01:43:49.705Z,13.68
2022-11-22T01:46:38.888Z,12.68
2022-11-22T01:49:23.588Z,14.18
2022-11-22T01:51:54.279Z,12.40
2022-11-22T01:54:25.860Z,13.65
2022-11-22T01:56:57.101Z,12.18
2022-11-22T01:59:29.097Z,13.35
2022-11-22T02:01:57.055Z,13.57
2022-11-22T02:04:28.587Z,12.50
2022-11-22T02:07:09.153Z,14.00
2022-11-22T02:09:39.084Z,12.60
2022-11-22T02:12:08.617Z,12.60
2022-11-22T02:14:38.712Z,13.32
2022-11-22T02:17:05.775Z,13.38
2022-11-22T02:19:49.177Z,12.88
2022-11-22T02:22:48.066Z,13.18
2022-11-22T02:25:24.444Z,13.75
2022-11-22T02:27:51.558Z,12.55
2022-11-22T02:30:19.341Z,13.82
2022-11-22T02:32:46.338Z,12.88
2022-11-22T02:35:25.141Z,13.77
2022-11-22T02:37:58.493Z,13.45
2022-11-22T02:40:28.389Z,12.98
2022-11-22T02:43:22.691Z,14.20
2022-11-22T02:45:49.704Z,13.68
2022-11-22T02:48:19.379Z,14.68
2022-11-22T02:50:47.476Z,13.45
2022-11-22T02:53:14.758Z,12.98
2022-11-22T02:55:41.787Z,14.07
2022-11-22T02:58:08.878Z,13.20
2022-11-22T03:00:38.169Z,14.30
2022-11-22T03:03:05.858Z,14.98
2022-11-22T03:05:33.494Z,14.93
2022-11-22T03:08:00.337Z,13.75
2022-11-22T03:10:27.417Z,13.35
2022-11-22T03:12:54.564Z,14.23
2022-11-22T03:15:21.440Z,13.85
2022-11-22T03:17:48.457Z,13.23
2022-11-22T03:20:15.951Z,13.07
2022-11-22T03:22:42.797Z,14.95
2022-11-22T03:25:09.981Z,13.70
2022-11-22T03:27:36.923Z,13.30
2022-11-22T03:30:04.375Z,14.73
2022-11-22T03:32:31.219Z,14.25
2022-11-22T03:34:58.474Z,14.98
2022-11-22T03:37:25.338Z,14.38
2022-11-22T03:39:52.331Z,14.48
2022-11-22T03:42:21.977Z,14.65
2022-11-22T03:44:49.651Z,15.40
2022-11-22T03:47:16.663Z,13.80
2022-11-22T03:49:44.060Z,13.73
2022-11-22T03:52:12.090Z,13.52
2022-11-22T03:54:39.187Z,14.65
2022-11-22T03:57:06.423Z,15.20
2022-11-22T03:59:33.416Z,15.48
2022-11-22T04:02:00.348Z,15.13
2022-11-22T04:04:27.579Z,15.13
2022-11-22T04:06:54.429Z,16.08
2022-11-22T04:09:21.484Z,15.65
2022-11-22T04:11:48.525Z,15.07
2022-11-22T04:14:33.839Z,15.43
2022-11-22T04:17:01.369Z,16.23
2022-11-22T04:19:28.553Z,16.27
2022-11-22T04:21:55.852Z,15.45
2022-11-22T04:24:41.409Z,15.77
2022-11-22T04:27:08.394Z,16.25
2022-11-22T04:29:35.256Z,15.45
2022-11-22T04:32:21.209Z,16.13
2022-11-22T04:34:48.494Z,16.80
2022-11-22T04:37:15.414Z,14.55
2022-11-22T04:39:42.527Z,17.55
2022-11-22T04:42:27.968Z,16.20
2022-11-22T04:44:56.445Z,15.23
2022-11-22T04:47:45.032Z,16.27
2022-11-22T04:50:34.620Z,16.75
2022-11-22T04:53:01.504Z,17.00
2022-11-22T04:55:28.339Z,15.07
2022-11-22T04:57:59.701Z,16.50
2022-11-22T05:00:29.242Z,16.95
2022-11-22T05:02:57.904Z,16.88
2022-11-22T05:05:25.882Z,17.92
2022-11-22T05:07:52.944Z,17.85
2022-11-22T05:10:26.031Z,17.70
2022-11-22T05:12:53.857Z,17.13
2022-11-22T05:15:21.043Z,16.60
2022-11-22T05:17:48.484Z,16.25
2022-11-22T05:20:15.289Z,18.10
2022-11-22T05:23:01.094Z,18.52
2022-11-22T05:25:27.937Z,16.15
2022-11-22T05:27:55.151Z,16.98
2022-11-22T05:30:22.597Z,17.00
2022-11-22T05:32:49.454Z,17.10
2022-11-22T05:35:16.598Z,15.90
2022-11-22T05:37:43.555Z,17.27
2022-11-22T05:40:11.546Z,16.85
2022-11-22T05:42:38.350Z,16.67
2022-11-22T05:45:06.139Z,17.02
2022-11-22T05:47:36.591Z,17.08
2022-11-22T05:50:04.808Z,16.38
2022-11-22T05:52:32.175Z,16.80
2022-11-22T05:54:59.114Z,16.38
2022-11-22T05:57:26.517Z,16.10
2022-11-22T05:59:54.741Z,16.27
2022-11-22T06:02:21.692Z,15.82
2022-11-22T06:04:48.806Z,17.00
2022-11-22T06:07:15.926Z,16.85
2022-11-22T06:09:42.875Z,16.02
2022-11-22T06:12:09.718Z,16.67
2022-11-22T06:14:43.017Z,16.80
2022-11-22T06:17:10.647Z,17.40
2022-11-22T06:19:37.499Z,18.05
2022-11-22T06:22:04.548Z,17.88
2022-11-22T06:24:31.409Z,17.80
2022-11-22T06:26:58.616Z,16.48
2022-11-22T06:29:25.787Z,16.73
2022-11-22T06:31:53.498Z,17.52
2022-11-22T06:34:20.343Z,16.42
2022-11-22T06:36:47.624Z,16.40
2022-11-22T06:39:14.535Z,16.38
2022-11-22T06:41:41.597Z,15.80
2022-11-22T06:44:10.228Z,16.52
2022-11-22T06:46:37.755Z,16.88
2022-11-22T06:49:04.847Z,16.95
2022-11-22T06:51:33.407Z,18.02
2022-11-22T06:54:00.251Z,16.23
2022-11-22T06:56:30.676Z,17.33
2022-11-22T06:59:01.821Z,17.38
2022-11-22T07:01:30.410Z,15.65
2022-11-22T07:04:03.796Z,16.23
2022-11-22T07:06:34.956Z,16.50
2022-11-22T07:09:08.376Z,16.88
2022-11-22T07:11:36.827Z,16.92
2022-11-22T07:14:08.870Z,16.45
2022-11-22T07:16:38.745Z,15.98
2022-11-22T07:19:06.570Z,16.80
2022-11-22T07:21:34.698Z,15.48
2022-11-22T07:24:01.688Z,16.05
2022-11-22T07:26:28.722Z,17.88
2022-11-22T07:28:55.991Z,16.88
2022-11-22T07:31:23.237Z,14.32
2022-11-22T07:33:50.423Z,16.00
2022-11-22T07:36:20.787Z,16.85
2022-11-22T07:38:49.009Z,16.75
2022-11-22T07:41:17.996Z,16.50
2022-11-22T07:43:46.733Z,16.70
2022-11-22T07:46:29.679Z,14.90
2022-11-22T07:48:57.908Z,16.50
2022-11-22T07:51:24.998Z,15.80
2022-11-22T07:53:52.185Z,17.00
2022-11-22T07:56:19.414Z,16.60
2022-11-22T07:58:46.721Z,16.83
2022-11-22T08:01:18.870Z,16.65
2022-11-22T08:03:46.842Z,15.23
2022-11-22T08:06:14.731Z,17.35
2022-11-22T08:08:42.670Z,17.55
2022-11-22T08:11:11.027Z,16.05
2022-11-22T08:13:37.981Z,17.13
2022-11-22T08:16:14.298Z,16.80
2022-11-22T08:18:45.533Z,16.92
2022-11-22T08:21:14.542Z,17.20
2022-11-22T08:23:42.768Z,17.42
2022-11-22T08:26:13.897Z,17.80
2022-11-22T08:28:42.535Z,19.27
2022-11-22T08:31:14.024Z,17.88
2022-11-22T08:33:41.793Z,18.27
2022-11-22T08:36:09.061Z,17.13
2022-11-22T08:38:36.615Z,18.52
2022-11-22T08:41:05.637Z,19.42
2022-11-22T08:43:33.238Z,19.02
2022-11-22T08:46:02.168Z,19.02
2022-11-22T08:48:32.696Z,19.23
2022-11-22T08:51:03.393Z,21.63
2022-11-22T08:53:33.548Z,19.98
2022-11-22T08:56:02.516Z,18.17
2022-11-22T08:58:31.339Z,18.45
2022-11-22T09:01:06.963Z,17.65
2022-11-22T09:03:35.920Z,18.52
2022-11-22T09:09:36.381Z,19.42
2022-11-22T09:11:47.988Z,20.48
2022-11-22T09:14:15.028Z,19.90
2022-11-22T09:16:42.127Z,19.98
2022-11-22T09:19:09.749Z,20.45
2022-11-22T09:21:36.996Z,19.73
2022-11-22T09:24:04.250Z,20.58
2022-11-22T09:26:31.320Z,19.08
2022-11-22T09:28:58.339Z,19.38
2022-11-22T09:31:25.763Z,20.13
2022-11-22T09:33:52.713Z,19.73
2022-11-22T09:36:22.948Z,21.25
2022-11-22T09:38:51.620Z,20.73
2022-11-22T09:41:56.069Z,20.95
2022-11-22T09:44:46.655Z,19.58
2022-11-22T09:47:49.627Z,18.30
2022-11-22T09:50:38.259Z,21.80
2022-11-22T09:53:35.142Z,19.48
2022-11-22T09:56:09.698Z,19.42
2022-11-22T09:59:06.700Z,18.63
2022-11-22T10:01:45.889Z,20.25
2022-11-22T10:04:25.167Z,21.60
2022-11-22T10:07:18.994Z,20.15
2022-11-22T10:10:12.047Z,18.95
2022-11-22T10:12:47.968Z,19.88
2022-11-22T10:15:49.633Z,20.35
2022-11-22T10:18:51.435Z,19.50
2022-11-22T10:21:20.039Z,20.95
2022-11-22T10:23:48.327Z,19.70
2022-11-22T10:26:30.038Z,19.92
2022-11-22T10:29:13.065Z,19.27
2022-11-22T10:32:20.623Z,22.80
2022-11-22T10:35:32.890Z,20.83
2022-11-22T10:38:41.437Z,20.42
2022-11-22T10:41:29.542Z,20.60
2022-11-22T10:44:23.685Z,22.58
2022-11-22T10:47:03.765Z,21.80
2022-11-22T10:49:52.337Z,20.30
2022-11-22T10:52:49.610Z,20.48
2022-11-22T10:58:28.201Z,20.42
2022-11-22T11:01:21.869Z,20.17
2022-11-22T11:03:54.939Z,19.60
2022-11-22T11:10:10.341Z,22.98
2022-11-22T11:12:43.454Z,20.27
2022-11-22T11:15:21.941Z,21.15
2022-11-22T11:17:59.056Z,20.73
2022-11-22T11:20:31.029Z,20.30
2022-11-22T11:23:14.277Z,19.13
2022-11-22T11:25:45.617Z,20.50
2022-11-22T11:28:22.042Z,19.98
2022-11-22T11:33:49.130Z,18.20
2022-11-22T11:36:23.838Z,19.42
2022-11-22T11:38:57.561Z,20.33
2022-11-22T11:41:40.279Z,20.83
2022-11-22T11:44:32.451Z,20.50
2022-11-22T11:47:00.025Z,20.13
2022-11-22T11:49:33.679Z,19.33
2022-11-22T11:52:09.790Z,19.63
2022-11-22T11:54:46.962Z,19.85
2022-11-22T11:57:28.673Z,19.20
2022-11-22T11:59:59.534Z,20.33
2022-11-22T12:02:41.475Z,21.20
2022-11-22T12:05:14.744Z,19.90
2022-11-22T12:07:45.275Z,18.85
2022-11-22T12:10:50.281Z,20.42
2022-11-22T12:13:37.171Z,19.50
2022-11-22T12:16:35.311Z,19.05
2022-11-22T12:19:29.692Z,19.90
2022-11-22T12:25:34.273Z,20.30
2022-11-22T12:28:19.431Z,19.20
2022-11-22T12:34:07.129Z,17.77
2022-11-22T12:37:20.794Z,18.33
2022-11-22T12:39:51.985Z,17.90
2022-11-22T12:42:29.372Z,19.23
2022-11-22T12:45:12.115Z,19.38
2022-11-22T12:47:42.117Z,17.05
2022-11-22T12:48:22.534Z,17.95
2022-11-22T12:50:44.734Z,19.50
2022-11-22T12:53:30.287Z,17.80
2022-11-22T12:56:28.366Z,17.63
2022-11-22T12:59:10.435Z,17.73
2022-11-22T13:01:37.590Z,18.40
2022-11-22T13:04:11.302Z,18.88
2022-11-22T13:06:57.494Z,17.92
2022-11-22T13:09:38.766Z,17.83
2022-11-22T13:12:15.641Z,17.23
2022-11-22T13:14:48.252Z,18.15
2022-11-22T13:17:17.665Z,18.38
2022-11-22T13:19:55.307Z,17.48
2022-11-22T13:23:00.552Z,18.20
2022-11-22T13:26:10.353Z,18.42
2022-11-22T13:28:42.515Z,16.20
2022-11-22T13:31:19.014Z,17.48
2022-11-22T13:33:56.922Z,17.48
2022-11-22T13:36:30.055Z,17.67
2022-11-22T13:39:01.041Z,17.27
2022-11-22T13:41:29.849Z,17.60
2022-11-22T13:44:39.382Z,18.58
2022-11-22T13:47:36.790Z,17.77
2022-11-22T13:50:41.895Z,17.02
2022-11-22T13:53:30.894Z,17.02
2022-11-22T13:56:21.823Z,17.77
2022-11-22T13:58:51.681Z,17.08
2022-11-22T14:01:34.602Z,18.80
2022-11-22T14:04:16.992Z,18.00
2022-11-22T14:06:50.038Z,17.73
2022-11-22T14:09:32.137Z,17.77
2022-11-22T14:12:40.255Z,17.52
2022-11-22T14:15:29.585Z,18.55
2022-11-22T14:18:21.669Z,18.10
2022-11-22T14:21:04.372Z,18.17
2022-11-22T14:23:57.251Z,18.25
2022-11-22T14:27:04.942Z,18.15
2022-11-22T14:30:09.291Z,17.55
2022-11-22T14:33:05.912Z,17.73
2022-11-22T14:35:39.202Z,18.03
2022-11-22T14:38:33.196Z,18.20
2022-11-22T14:41:28.841Z,18.13
2022-11-22T14:44:07.357Z,18.65
2022-11-22T14:46:53.179Z,18.00
2022-11-22T14:49:42.779Z,17.55
2022-11-22T14:52:25.522Z,18.33
2022-11-22T14:55:05.994Z,18.80
2022-11-22T14:57:37.069Z,18.80
2022-11-22T15:00:25.055Z,18.98
2022-11-22T15:03:14.980Z,18.27
2022-11-22T15:09:14.161Z,19.45
2022-11-22T15:09:52.192Z,17.52
2022-11-22T15:12:33.589Z,17.92
2022-11-22T15:59:46.907Z,18.48
2022-11-22T16:02:31.779Z,17.83
2022-11-22T16:06:06.634Z,19.45
2022-11-22T16:07:51.999Z,17.95
2022-11-22T16:10:50.113Z,19.00
2022-11-22T16:13:21.208Z,18.90
2022-11-22T16:16:10.588Z,18.48
2022-11-22T16:18:42.954Z,17.98
2022-11-22T16:21:15.746Z,17.45
2022-11-22T16:23:47.568Z,20.23
2022-11-22T16:26:19.820Z,20.63
2022-11-22T16:28:51.108Z,18.45
2022-11-22T16:31:32.197Z,19.25
2022-11-22T16:33:59.858Z,18.42
2022-11-22T16:36:30.243Z,19.38
2022-11-22T16:38:57.378Z,19.27
2022-11-22T16:41:29.816Z,19.88
2022-11-22T16:44:03.051Z,20.33
2022-11-22T16:46:30.941Z,19.45
2022-11-22T16:48:58.165Z,19.13
2022-11-22T16:51:28.577Z,21.50
2022-11-22T16:54:00.362Z,22.30
2022-11-22T16:56:29.864Z,19.92
2022-11-22T16:58:58.098Z,18.23
2022-11-22T17:01:32.723Z,21.50
2022-11-22T17:04:02.851Z,21.33
2022-11-22T17:06:31.250Z,22.35
2022-11-22T17:09:00.377Z,18.85
2022-11-22T17:11:31.246Z,19.65
2022-11-22T17:13:59.839Z,19.15
2022-11-22T17:16:27.084Z,19.83
2022-11-22T17:18:54.241Z,20.80
2022-11-22T17:21:37.726Z,21.13
2022-11-22T17:24:23.781Z,21.45
2022-11-22T17:26:51.348Z,19.42
2022-11-22T17:29:48.854Z,19.77
2022-11-22T17:32:06.212Z,20.83
2022-11-22T17:34:33.584Z,18.98
2022-11-22T17:37:00.960Z,20.65
2022-11-22T17:39:28.403Z,19.88
2022-11-22T17:41:55.713Z,20.73
2022-11-22T17:44:22.753Z,20.42
2022-11-22T17:46:50.583Z,20.70
2022-11-22T17:49:17.570Z,20.33
2022-11-22T17:51:46.555Z,22.10
2022-11-22T17:54:13.673Z,20.20
2022-11-22T17:56:40.739Z,21.55
2022-11-22T17:59:07.733Z,19.98
2022-11-22T18:01:36.972Z,21.00
2022-11-22T18:04:04.088Z,21.00
2022-11-22T18:06:32.182Z,21.60
2022-11-22T18:09:00.383Z,20.52
2022-11-22T18:11:27.572Z,20.25
2022-11-22T18:13:54.636Z,20.88
2022-11-22T18:16:28.006Z,20.35
2022-11-22T18:18:57.735Z,20.27
2022-11-22T18:21:29.267Z,19.48
2022-11-22T18:24:01.366Z,23.27
2022-11-22T18:26:44.398Z,21.45
2022-11-22T18:32:01.853Z,19.77
2022-11-22T18:34:30.089Z,22.08
2022-11-22T18:37:02.085Z,20.67
2022-11-22T18:39:39.039Z,20.48
2022-11-22T18:42:15.263Z,19.75
2022-11-22T18:44:43.059Z,20.20
2022-11-22T18:47:10.195Z,19.45
2022-11-22T18:49:37.791Z,20.85
2022-11-22T18:52:05.426Z,20.60
2022-11-22T18:54:32.909Z,20.45
2022-11-22T18:57:00.257Z,19.17
2022-11-22T18:59:27.979Z,21.10
2022-11-22T19:01:55.518Z,20.85
2022-11-22T19:04:22.611Z,20.33
2022-11-22T19:06:49.630Z,20.67
2022-11-22T19:09:16.706Z,20.50
2022-11-22T19:11:43.633Z,22.85
2022-11-22T19:14:11.105Z,20.95
2022-11-22T19:16:38.127Z,21.63
2022-11-22T19:19:05.231Z,19.48
2022-11-22T19:21:32.251Z,20.63
2022-11-22T19:23:59.245Z,21.52
2022-11-22T19:26:28.059Z,20.33
2022-11-22T19:28:57.618Z,21.17
2022-11-22T19:31:28.745Z,22.30
2022-11-22T19:33:55.844Z,22.10
2022-11-22T19:36:32.214Z,20.77
2022-11-22T19:39:00.957Z,21.10
2022-11-22T19:41:28.893Z,21.83
2022-11-22T19:43:56.648Z,21.55
2022-11-22T19:46:25.117Z,21.58
2022-11-22T19:48:57.568Z,21.90
2022-11-22T19:51:26.169Z,20.95
2022-11-22T19:54:00.667Z,20.73
2022-11-22T19:56:31.007Z,20.50
2022-11-22T19:58:59.887Z,20.05
2022-11-22T20:01:31.159Z,20.70
2022-11-22T20:04:05.350Z,21.52
2022-11-22T20:06:34.338Z,20.30
2022-11-22T20:09:11.591Z,21.52
2022-11-22T20:11:40.950Z,22.45
2022-11-22T20:14:09.517Z,21.58
2022-11-22T20:16:41.443Z,20.10
2022-11-22T20:19:10.498Z,20.90
2022-11-22T20:21:39.865Z,21.88
2022-11-22T20:24:09.921Z,21.45
2022-11-22T20:26:37.169Z,22.85
2022-11-22T20:29:08.120Z,20.83
2022-11-22T20:31:37.878Z,21.58
2022-11-22T20:34:05.144Z,20.83
2022-11-22T20:36:34.763Z,21.98
2022-11-22T20:39:07.021Z,21.33
2022-11-22T20:41:37.057Z,21.90
2022-11-22T20:44:04.396Z,21.35
2022-11-22T20:46:31.505Z,20.55
2022-11-22T20:48:58.634Z,21.70
2022-11-22T20:51:27.975Z,21.63
2022-11-22T20:53:57.493Z,22.05
2022-11-22T20:56:25.693Z,22.13
2022-11-22T20:58:52.681Z,21.08
2022-11-22T21:01:24.101Z,20.83
2022-11-22T21:03:52.812Z,21.58
2022-11-22T21:06:21.999Z,21.10
2022-11-22T21:08:49.332Z,22.20
2022-11-22T21:11:19.851Z,22.15
2022-11-22T21:13:48.008Z,20.60
2022-11-22T21:16:24.908Z,22.67
2022-11-22T21:19:01.729Z,22.20
2022-11-22T21:21:31.303Z,20.50
2022-11-22T21:24:01.090Z,21.58
2022-11-22T21:26:29.140Z,22.58
2022-11-22T21:28:57.358Z,20.98
2022-11-22T21:31:25.023Z,22.27
2022-11-22T21:33:52.836Z,22.10
2022-11-22T21:36:20.826Z,20.27
2022-11-22T21:38:47.790Z,21.85
2022-11-22T21:44:09.599Z,20.58
2022-11-22T21:46:37.087Z,21.63
2022-11-22T21:49:04.082Z,21.15
2022-11-22T21:51:31.800Z,21.40
2022-11-22T21:54:01.092Z,21.33
2022-11-22T21:56:28.312Z,21.83
2022-11-22T21:58:56.064Z,21.48
2022-11-22T22:01:24.636Z,22.48
2022-11-22T22:03:52.717Z,22.17
2022-11-22T22:06:19.789Z,22.73
2022-11-22T22:08:47.051Z,23.05
2022-11-22T22:11:14.517Z,23.02
2022-11-22T22:13:41.502Z,21.67
2022-11-22T22:16:12.731Z,20.52
2022-11-22T22:18:39.879Z,21.80
2022-11-22T22:21:09.551Z,22.20
2022-11-22T22:23:39.609Z,22.70
2022-11-22T22:26:09.966Z,21.77
2022-11-22T22:28:38.199Z,20.48
2022-11-22T22:31:23.949Z,20.98
2022-11-22T22:33:55.128Z,22.77
2022-11-22T22:36:26.132Z,22.00
2022-11-22T22:38:54.879Z,22.60
2022-11-22T22:41:22.018Z,21.08
2022-11-22T22:43:49.713Z,22.08
2022-11-22T22:46:22.638Z,21.38
2022-11-22T22:48:51.004Z,22.83
2022-11-22T22:51:32.684Z,22.55
2022-11-22T22:54:01.281Z,20.58
2022-11-22T22:56:31.373Z,21.02
2022-11-22T22:59:01.394Z,23.10
2022-11-22T23:01:30.828Z,24.27
2022-11-22T23:04:00.514Z,23.67
2022-11-22T23:06:34.358Z,23.75
2022-11-22T23:09:02.687Z,24.23
2022-11-22T23:11:50.533Z,23.10
2022-11-22T23:14:25.210Z,21.20
2022-11-22T23:16:57.312Z,21.92
2022-11-22T23:19:26.002Z,21.92
2022-11-22T23:21:53.506Z,22.85
2022-11-22T23:24:20.931Z,21.25
2022-11-22T23:26:47.843Z,22.90
2022-11-22T23:29:15.245Z,23.38
2022-11-22T23:31:42.073Z,22.20
2022-11-22T23:34:11.612Z,23.17
2022-11-22T23:36:41.117Z,22.15
2022-11-22T23:39:09.215Z,22.80
2022-11-22T23:41:36.177Z,22.15
2022-11-22T23:44:03.638Z,20.80
2022-11-22T23:46:30.643Z,21.38
2022-11-22T23:49:00.043Z,23.08
2022-11-22T23:51:29.719Z,21.70
2022-11-22T23:54:02.291Z,20.80
2022-11-22T23:56:31.384Z,22.80
2022-11-22T23:58:59.784Z,22.80
